Time;durP1;ratioP1;P1;durP2;ratioP2;P2;SDS_P1;SDS_P2;PMS_P1;PMS_P2;Temp;Humidity;BMP_temperature;BMP_pressure;BME280_temperature;BME280_humidity;BME280_pressure;Samples;Min_cycle;Max_cycle;Signal;HPM_P1;HPM_P2
2022/01/13 00:01:42;;;;;;;40.63;13.60;;;;;;;1.36;87.47;104097.22;5081826;28;20382;-88
2022/01/13 00:04:10;;;;;;;38.57;13.27;;;;;;;1.38;87.36;104093.84;5059581;28;20490;-88
2022/01/13 00:06:37;;;;;;;42.87;12.87;;;;;;;1.36;87.38;104098.88;5058773;28;20389;-88
2022/01/13 00:09:03;;;;;;;43.73;14.17;;;;;;;1.37;87.50;104098.09;5074299;28;20043;-89
2022/01/13 00:11:29;;;;;;;37.10;13.50;;;;;;;1.36;87.56;104097.22;5081289;28;20023;-89
2022/01/13 00:14:21;;;;;;;51.47;13.97;;;;;;;1.39;87.75;104100.75;5076883;28;20031;-89
2022/01/13 00:19:48;;;;;;;35.80;13.13;;;;;;;1.40;87.49;104112.78;5080813;28;20086;-89
2022/01/13 00:24:49;;;;;;;41.08;12.05;;;;;;;1.40;87.47;104115.38;5074425;28;20483;-88
2022/01/13 00:27:16;;;;;;;36.10;12.13;;;;;;;1.37;87.46;104118.63;5059353;28;20483;-89
2022/01/13 00:29:44;;;;;;;41.97;13.23;;;;;;;1.39;87.58;104121.28;5080887;28;20089;-89
2022/01/13 00:32:12;;;;;;;45.80;12.90;;;;;;;1.40;87.56;104120.50;5083473;28;20449;-89
2022/01/13 00:34:38;;;;;;;50.90;12.30;;;;;;;1.41;87.63;104112.00;5060558;28;20368;-89
2022/01/13 00:37:03;;;;;;;42.23;12.53;;;;;;;1.42;87.53;104108.66;5082838;28;20028;-89
2022/01/13 00:39:29;;;;;;;45.20;12.53;;;;;;;1.43;87.75;104097.59;5057215;28;20387;-89
2022/01/13 00:41:54;;;;;;;38.87;12.60;;;;;;;1.44;87.83;104091.69;5081889;28;20036;-89
2022/01/13 00:44:21;;;;;;;40.00;11.77;;;;;;;1.45;87.66;104096.91;5078078;28;20027;-88
2022/01/13 00:46:50;;;;;;;39.87;13.53;;;;;;;1.43;87.60;104088.25;5075166;28;20482;-89
2022/01/13 00:49:15;;;;;;;45.03;13.03;;;;;;;1.43;87.76;104083.13;5058309;28;20024;-89
2022/01/13 00:51:41;;;;;;;48.90;13.37;;;;;;;1.45;87.82;104085.78;5072442;28;20031;-88
2022/01/13 00:54:08;;;;;;;44.70;12.30;;;;;;;1.45;88.15;104088.34;5083210;28;20107;-89
2022/01/13 00:56:34;;;;;;;44.73;14.47;;;;;;;1.43;88.01;104078.00;5086148;28;20028;-89
2022/01/13 00:59:01;;;;;;;37.93;11.70;;;;;;;1.47;87.79;104076.50;5055209;28;20464;-89
2022/01/13 01:01:26;;;;;;;44.53;12.57;;;;;;;1.46;87.79;104085.84;5071095;28;20111;-89
2022/01/13 01:03:52;;;;;;;41.60;12.20;;;;;;;1.46;88.42;104077.28;5076456;28;20450;-89
2022/01/13 01:06:17;;;;;;;36.70;12.03;;;;;;;1.47;87.63;104068.81;5058906;28;20043;-88
2022/01/13 01:08:43;;;;;;;32.57;11.37;;;;;;;1.46;87.76;104072.16;5075567;28;20352;-89
2022/01/13 01:11:08;;;;;;;41.73;12.87;;;;;;;1.45;87.88;104072.94;5072579;28;20404;-88
2022/01/13 01:13:35;;;;;;;42.07;12.73;;;;;;;1.45;87.79;104068.69;5071283;28;20029;-89
2022/01/13 01:16:05;;;;;;;33.53;11.57;;;;;;;1.45;87.81;104080.63;5055216;28;20067;-88
2022/01/13 01:18:40;;;;;;;39.47;11.83;;;;;;;1.44;87.74;104086.56;5070449;28;20028;-89
2022/01/13 01:29:04;;;;;;;30.33;11.43;;;;;;;1.41;87.95;104084.69;5071643;28;20064;-88
2022/01/13 01:31:32;;;;;;;34.03;11.93;;;;;;;1.42;87.92;104080.44;5060229;28;20024;-89
2022/01/13 01:34:16;;;;;;;38.97;11.80;;;;;;;1.43;88.03;104074.53;5052651;28;20436;-89
2022/01/13 01:36:42;;;;;;;31.77;12.13;;;;;;;1.44;87.97;104079.78;5057872;28;20024;-88
2022/01/13 01:39:08;;;;;;;35.90;12.70;;;;;;;1.44;88.01;104079.78;5075635;28;20072;-89
2022/01/13 01:41:35;;;;;;;30.27;11.47;;;;;;;1.43;88.00;104082.22;5073722;28;20109;-89
2022/01/13 01:44:12;;;;;;;32.37;11.23;;;;;;;1.42;87.92;104081.34;5069366;28;20048;-89
2022/01/13 01:46:41;;;;;;;42.43;11.63;;;;;;;1.39;87.64;104082.78;5072126;28;20115;-89
2022/01/13 01:49:15;;;;;;;33.07;10.87;;;;;;;1.38;87.73;104075.88;5058113;28;20112;-88
2022/01/13 01:51:41;;;;;;;40.20;11.63;;;;;;;1.34;87.42;104073.16;5070654;28;20124;-88
2022/01/13 01:54:06;;;;;;;44.37;10.23;;;;;;;1.31;87.46;104077.16;5071075;28;20044;-87
2022/01/13 01:56:32;;;;;;;38.50;10.50;;;;;;;1.29;87.50;104082.22;5070807;28;20422;-88
2022/01/13 01:59:01;;;;;;;33.53;11.20;;;;;;;1.28;87.59;104077.00;5072970;28;20032;-88
2022/01/13 02:01:28;;;;;;;34.50;11.47;;;;;;;1.26;87.69;104069.19;5072792;28;20012;-88
2022/01/13 02:03:53;;;;;;;41.50;11.17;;;;;;;1.25;87.60;104066.53;5070587;28;20028;-88
2022/01/13 02:06:19;;;;;;;34.30;11.10;;;;;;;1.23;87.57;104074.09;5074849;28;20029;-88
2022/01/13 02:08:44;;;;;;;52.17;11.17;;;;;;;1.21;87.86;104076.59;5077930;28;20033;-88
2022/01/13 02:11:10;;;;;;;39.47;11.23;;;;;;;1.22;87.54;104074.88;5053412;28;20107;-88
2022/01/13 02:13:36;;;;;;;32.43;11.03;;;;;;;1.20;87.96;104077.38;5073850;28;20039;-88
2022/01/13 02:16:02;;;;;;;26.73;11.57;;;;;;;1.21;88.03;104081.72;5089551;28;20028;-89
2022/01/13 02:18:32;;;;;;;31.23;11.13;;;;;;;1.22;88.21;104077.44;5101819;28;20013;-88
2022/01/13 02:21:00;;;;;;;42.70;10.53;;;;;;;1.23;88.11;104081.81;5101569;28;20020;-88
2022/01/13 02:23:30;;;;;;;39.43;11.27;;;;;;;1.26;88.11;104083.69;5092276;28;20029;-88
2022/01/13 02:25:56;;;;;;;36.77;11.07;;;;;;;1.26;87.71;104084.56;5090879;28;20399;-88
2022/01/13 02:28:21;;;;;;;37.43;10.83;;;;;;;1.27;88.10;104091.47;5079398;28;20040;-89
2022/01/13 02:30:46;;;;;;;34.90;11.13;;;;;;;1.27;88.27;104091.47;5060770;28;20451;-88
2022/01/13 02:33:11;;;;;;;28.53;11.07;;;;;;;1.25;88.05;104087.06;5077411;28;20457;-88
2022/01/13 02:35:37;;;;;;;35.87;10.17;;;;;;;1.26;87.88;104084.56;5077190;28;20016;-88
2022/01/13 02:38:09;;;;;;;27.87;10.13;;;;;;;1.25;87.85;104076.78;5075385;28;20032;-88
2022/01/13 02:40:34;;;;;;;28.47;10.23;;;;;;;1.24;87.54;104090.41;5078476;28;20023;-89
2022/01/13 02:42:59;;;;;;;27.40;10.10;;;;;;;1.23;87.71;104092.06;5064923;28;20436;-89
2022/01/13 02:45:32;;;;;;;24.07;10.27;;;;;;;1.24;87.69;104085.28;5072589;28;20024;-88
2022/01/13 02:48:12;;;;;;;33.90;11.03;;;;;;;1.24;87.69;104085.28;5079448;28;20497;-89
2022/01/13 02:50:39;;;;;;;23.30;10.37;;;;;;;1.24;87.72;104075.88;5052846;28;20020;-89
2022/01/13 02:53:04;;;;;;;31.33;10.40;;;;;;;1.25;87.68;104080.22;5061820;28;20609;-88
2022/01/13 02:55:29;;;;;;;31.43;11.50;;;;;;;1.26;87.51;104079.44;5075114;28;20124;-88
2022/01/13 02:57:54;;;;;;;26.47;10.80;;;;;;;1.24;87.81;104075.88;5073255;28;20036;-88
2022/01/13 03:00:20;;;;;;;24.43;10.70;;;;;;;1.25;87.60;104081.91;5074807;28;20028;-89
2022/01/13 03:02:47;;;;;;;24.90;11.27;;;;;;;1.25;87.72;104087.06;5074077;28;20021;-89
2022/01/13 03:05:14;;;;;;;26.97;10.67;;;;;;;1.27;87.77;104083.78;5062597;28;20021;-88
2022/01/13 03:07:40;;;;;;;26.90;10.87;;;;;;;1.27;87.88;104081.22;5072759;28;20052;-89
2022/01/13 03:10:06;;;;;;;29.00;10.97;;;;;;;1.29;88.07;104079.66;5073297;28;20074;-89
2022/01/13 03:12:35;;;;;;;30.20;10.93;;;;;;;1.31;88.01;104067.81;5070661;28;20025;-89
2022/01/13 03:15:00;;;;;;;24.90;10.13;;;;;;;1.31;87.81;104070.38;5069904;28;20163;-89
2022/01/13 03:17:25;;;;;;;33.80;10.87;;;;;;;1.33;88.12;104071.38;5070180;28;20458;-89
2022/01/13 03:19:50;;;;;;;34.50;11.00;;;;;;;1.32;87.68;104067.03;5082865;28;20039;-88
2022/01/13 03:22:16;;;;;;;28.57;9.60;;;;;;;1.30;87.64;104071.16;5078452;28;20116;-89
2022/01/13 03:24:41;;;;;;;25.93;9.87;;;;;;;1.29;87.48;104071.94;5073186;28;20540;-89
2022/01/13 03:27:07;;;;;;;26.20;9.97;;;;;;;1.26;87.46;104071.75;5069083;28;20375;-89
2022/01/13 03:29:33;;;;;;;39.20;9.93;;;;;;;1.24;87.63;104070.75;5072355;28;20021;-89
2022/01/13 03:31:58;;;;;;;28.57;9.53;;;;;;;1.25;87.43;104066.53;5071521;28;20085;-89
2022/01/13 03:34:24;;;;;;;22.87;9.70;;;;;;;1.24;87.00;104065.63;5054260;28;20024;-88
2022/01/13 03:36:49;;;;;;;34.23;9.90;;;;;;;1.23;87.32;104047.59;5070383;28;20029;-89
2022/01/13 03:39:15;;;;;;;31.80;9.93;;;;;;;1.23;87.54;104050.16;5079218;28;20102;-89
2022/01/13 03:41:41;;;;;;;31.90;9.43;;;;;;;1.21;87.39;104048.38;5071521;28;20092;-89
2022/01/13 03:44:15;;;;;;;20.97;8.80;;;;;;;1.21;87.60;104048.38;5071815;28;20020;-89
2022/01/13 03:46:41;;;;;;;30.93;10.00;;;;;;;1.21;87.67;104053.50;5051425;28;20044;-89
2022/01/13 03:49:09;;;;;;;27.70;10.20;;;;;;;1.22;87.52;104056.94;5050462;28;20041;-89
2022/01/13 03:51:55;;;;;;;25.07;9.63;;;;;;;1.22;88.00;104051.81;5068002;28;20041;-89
2022/01/13 03:54:32;;;;;;;25.03;10.23;;;;;;;1.25;88.16;104066.53;5062239;28;20063;-89
2022/01/13 03:57:13;;;;;;;26.07;9.40;;;;;;;1.26;87.67;104064.06;5070562;28;20029;-89
2022/01/13 04:00:13;;;;;;;26.07;9.27;;;;;;;1.20;87.67;104056.84;5068885;28;20024;-88
2022/01/13 04:02:38;;;;;;;33.87;8.83;;;;;;;1.17;87.68;104056.66;5067538;28;20545;-88
2022/01/13 04:05:04;;;;;;;31.87;9.40;;;;;;;1.14;87.69;104055.56;5075684;28;20017;-88
2022/01/13 04:07:29;;;;;;;25.53;9.63;;;;;;;1.14;87.98;104053.00;5077235;28;20024;-88
2022/01/13 04:09:54;;;;;;;26.53;10.40;;;;;;;1.12;87.94;104050.31;5070704;28;20029;-88
2022/01/13 04:12:21;;;;;;;37.13;10.93;;;;;;;1.12;88.12;104047.75;5069332;28;20411;-88
2022/01/13 04:14:52;;;;;;;30.70;9.73;;;;;;;1.11;88.23;104043.41;5069664;28;20052;-88
2022/01/13 04:17:19;;;;;;;33.67;10.50;;;;;;;1.11;88.31;104039.97;5074452;28;20025;-88
2022/01/13 04:19:46;;;;;;;34.70;9.80;;;;;;;1.10;88.07;104039.09;5069689;28;20348;-88
2022/01/13 04:22:12;;;;;;;29.93;10.87;;;;;;;1.10;88.35;104035.63;5068700;28;20467;-89
2022/01/13 04:24:39;;;;;;;31.37;10.07;;;;;;;1.11;88.41;104038.28;5067602;28;20024;-88
2022/01/13 04:27:05;;;;;;;41.73;9.67;;;;;;;1.12;88.29;104039.19;5068382;28;20041;-88
2022/01/13 04:29:35;;;;;;;38.83;10.47;;;;;;;1.12;88.29;104039.19;5070048;28;20029;-88
2022/01/13 04:32:01;;;;;;;38.10;10.30;;;;;;;1.11;88.06;104038.28;5071561;28;20055;-88
2022/01/13 04:34:26;;;;;;;34.80;9.73;;;;;;;1.10;88.14;104033.06;5070696;28;20055;-88
2022/01/13 04:36:54;;;;;;;32.60;10.43;;;;;;;1.07;88.25;104033.75;5073883;28;20479;-88
2022/01/13 04:39:20;;;;;;;31.47;10.00;;;;;;;1.06;88.48;104038.00;5069436;28;20024;-88
2022/01/13 04:41:47;;;;;;;27.80;10.17;;;;;;;1.08;88.04;104042.34;5073159;28;20170;-89
2022/01/13 04:44:18;;;;;;;36.50;10.37;;;;;;;1.06;88.40;104035.41;5056376;28;20027;-88
2022/01/13 04:46:45;;;;;;;39.35;10.85;;;;;;;1.09;88.20;104032.19;5071483;28;20168;-88
2022/01/13 04:49:10;;;;;;;32.47;10.07;;;;;;;1.10;88.25;104033.06;5080360;28;20468;-87
2022/01/13 04:51:37;;;;;;;35.50;11.37;;;;;;;1.06;88.26;104027.72;5069863;28;20078;-88
2022/01/13 04:54:03;;;;;;;34.40;11.40;;;;;;;1.04;88.48;104026.75;5071108;28;20041;-88
2022/01/13 04:57:03;;;;;;;31.00;11.10;;;;;;;1.04;88.75;104034.44;5073809;28;20055;-88
2022/01/13 04:59:28;;;;;;;30.77;10.43;;;;;;;1.04;88.21;104031.88;5052576;28;20499;-88
2022/01/13 05:01:53;;;;;;;37.73;11.23;;;;;;;1.05;88.17;104037.91;5072260;28;20029;-87
2022/01/13 05:04:18;;;;;;;31.63;10.93;;;;;;;1.01;88.23;104035.91;5071024;28;20030;-88
2022/01/13 05:06:44;;;;;;;36.90;11.40;;;;;;;1.02;88.06;104046.28;5073425;28;20024;-87
2022/01/13 05:09:09;;;;;;;39.37;12.17;;;;;;;1.02;88.61;104043.72;5074646;28;20032;-87
2022/01/13 05:11:34;;;;;;;37.97;11.33;;;;;;;1.02;88.26;104048.84;5074888;28;20029;-87
2022/01/13 05:14:00;;;;;;;35.87;11.83;;;;;;;1.04;88.56;104046.38;5079130;28;20097;-88
2022/01/13 05:16:33;;;;;;;45.53;11.97;;;;;;;1.04;88.78;104031.88;5074024;28;20037;-87
2022/01/13 05:21:44;;;;;;;40.90;11.47;;;;;;;1.03;88.44;104035.22;5073562;28;20070;-88
2022/01/13 05:24:10;;;;;;;55.30;11.43;;;;;;;1.01;88.74;104039.38;5053897;28;20037;-87
2022/01/13 05:26:35;;;;;;;40.57;12.03;;;;;;;0.98;88.46;104041.75;5070009;28;20033;-88
2022/01/13 05:29:01;;;;;;;41.53;11.73;;;;;;;0.98;88.89;104040.84;5076976;28;20137;-87
2022/01/13 05:31:26;;;;;;;38.00;11.33;;;;;;;0.97;88.88;104034.84;5078337;28;20036;-88
2022/01/13 05:33:51;;;;;;;35.70;11.97;;;;;;;0.97;88.88;104031.38;5073101;28;20054;-87
2022/01/13 05:36:17;;;;;;;36.97;11.73;;;;;;;0.97;88.78;104024.59;5057637;28;20069;-88
2022/01/13 05:38:42;;;;;;;47.47;12.07;;;;;;;0.98;88.78;104031.50;5068453;28;20039;-88
2022/01/13 05:41:08;;;;;;;49.93;11.50;;;;;;;0.97;88.87;104028.81;5071025;28;20042;-88
2022/01/13 05:43:34;;;;;;;47.63;11.67;;;;;;;0.98;89.43;104031.50;5074074;28;20047;-87
2022/01/13 05:45:59;;;;;;;44.00;12.07;;;;;;;0.99;89.33;104034.91;5053858;28;20467;-88
2022/01/13 05:48:24;;;;;;;31.90;12.00;;;;;;;0.99;88.90;104048.66;5063252;28;20079;-87
2022/01/13 05:50:50;;;;;;;44.57;12.10;;;;;;;0.99;88.89;104038.41;5049433;28;20044;-88
2022/01/13 05:53:15;;;;;;;44.70;12.57;;;;;;;0.98;88.73;104039.19;5069683;28;20051;-88
2022/01/13 05:55:40;;;;;;;42.70;11.27;;;;;;;0.98;88.81;104030.59;5049983;28;20063;-87
2022/01/13 05:58:06;;;;;;;52.17;11.37;;;;;;;0.96;88.57;104030.50;5066192;28;20774;-88
2022/01/13 06:00:31;;;;;;;35.23;12.17;;;;;;;0.96;88.96;104038.19;5052898;28;20033;-87
2022/01/13 06:02:56;;;;;;;35.00;11.53;;;;;;;0.96;88.98;104037.28;5068107;28;20044;-88
2022/01/13 06:05:22;;;;;;;56.60;11.83;;;;;;;0.96;88.84;104045.88;5076803;28;20463;-87
2022/01/13 06:07:47;;;;;;;44.67;11.73;;;;;;;0.97;88.68;104045.09;5072960;28;20383;-87
2022/01/13 06:10:18;;;;;;;40.40;10.70;;;;;;;0.97;88.95;104039.97;5065920;28;20033;-88
2022/01/13 06:12:49;;;;;;;46.95;11.90;;;;;;;0.96;88.70;104045.88;5069074;28;20101;-87
2022/01/13 06:15:16;;;;;;;60.23;11.27;;;;;;;0.94;88.82;104042.31;5068294;28;20027;-87
2022/01/13 06:17:42;;;;;;;46.57;11.53;;;;;;;0.95;89.01;104040.63;5067126;28;20035;-88
2022/01/13 06:20:10;;;;;;;33.87;11.50;;;;;;;0.94;89.09;104039.75;5066823;28;20015;-88
2022/01/13 06:22:37;;;;;;;38.00;11.47;;;;;;;0.97;89.03;104044.19;5070546;28;20028;-88
2022/01/13 06:25:05;;;;;;;45.60;11.53;;;;;;;0.98;88.91;104035.72;5066630;28;20027;-87
2022/01/13 06:27:31;;;;;;;44.23;11.83;;;;;;;0.97;88.68;104033.94;5070719;28;20032;-88
2022/01/13 06:29:56;;;;;;;44.10;11.90;;;;;;;0.96;89.09;104035.63;5074167;28;20395;-88
2022/01/13 06:32:22;;;;;;;35.03;11.70;;;;;;;0.95;88.99;104035.50;5078428;28;20499;-88
2022/01/13 06:34:49;;;;;;;45.07;12.27;;;;;;;0.96;88.95;104033.06;5065575;28;20100;-89
2022/01/13 06:37:14;;;;;;;48.70;10.67;;;;;;;0.97;88.95;104028.81;5068848;28;20031;-88
2022/01/13 06:39:40;;;;;;;38.83;11.53;;;;;;;0.98;88.95;104028.94;5052585;28;20082;-88
2022/01/13 06:42:06;;;;;;;50.40;11.33;;;;;;;0.99;88.90;104033.25;5066768;28;20038;-88
2022/01/13 06:44:31;;;;;;;51.27;11.47;;;;;;;1.01;89.24;104025.66;5071578;28;20475;-88
2022/01/13 06:46:57;;;;;;;45.13;10.63;;;;;;;1.01;89.00;104026.56;5051670;28;20548;-88
2022/01/13 06:49:24;;;;;;;41.90;11.00;;;;;;;1.01;88.83;104020.53;5071330;28;20099;-88
2022/01/13 06:51:49;;;;;;;56.33;12.87;;;;;;;1.01;89.32;104018.88;5071007;28;20297;-88
2022/01/13 06:54:14;;;;;;;43.37;11.80;;;;;;;1.02;89.19;104018.09;5088910;28;20048;-89
2022/01/13 06:56:40;;;;;;;38.47;12.07;;;;;;;1.02;88.92;104018.09;5091415;28;20055;-88
2022/01/13 06:59:10;;;;;;;42.13;11.47;;;;;;;1.04;89.37;104021.59;5076222;28;20059;-88
2022/01/13 07:01:38;;;;;;;38.20;11.37;;;;;;;1.05;89.27;104025.94;5071364;28;20016;-88
2022/01/13 07:04:04;;;;;;;48.03;11.57;;;;;;;1.09;89.23;104018.47;5073228;28;20074;-88
2022/01/13 07:06:30;;;;;;;49.53;12.40;;;;;;;1.10;89.68;104025.38;5066286;28;20028;-88
2022/01/13 07:08:55;;;;;;;56.83;11.77;;;;;;;1.12;89.14;104034.06;5072676;28;20024;-87
2022/01/13 07:11:20;;;;;;;53.20;11.67;;;;;;;1.11;88.95;104033.16;5069603;28;20033;-88
2022/01/13 07:13:45;;;;;;;54.50;12.10;;;;;;;1.13;89.09;104040.97;5066293;28;20064;-88
2022/01/13 07:16:11;;;;;;;45.23;12.10;;;;;;;1.14;89.22;104042.75;5072965;28;20354;-87
2022/01/13 07:18:39;;;;;;;56.37;11.27;;;;;;;1.15;89.23;104034.25;5078485;28;20023;-87
2022/01/13 07:21:09;;;;;;;53.83;12.63;;;;;;;1.16;89.30;104041.16;5074803;28;20052;-88
2022/01/13 07:23:35;;;;;;;61.43;12.00;;;;;;;1.16;89.19;104031.78;5071365;28;20473;-87
2022/01/13 07:26:02;;;;;;;50.83;11.63;;;;;;;1.16;89.07;104031.78;5074422;28;20039;-87
2022/01/13 07:28:29;;;;;;;62.17;12.43;;;;;;;1.14;89.17;104032.50;5077255;28;20124;-87
2022/01/13 07:30:55;;;;;;;61.50;10.93;;;;;;;1.13;89.31;104023.00;5073643;28;20062;-87
2022/01/13 07:33:20;;;;;;;45.93;11.57;;;;;;;1.12;89.09;104028.94;5052952;28;20063;-87
2022/01/13 07:35:45;;;;;;;52.70;11.50;;;;;;;1.12;89.22;104026.38;5083057;28;20498;-87
2022/01/13 07:38:11;;;;;;;40.97;11.60;;;;;;;1.12;89.36;104028.94;5069777;28;20023;-88
2022/01/13 07:40:36;;;;;;;51.93;12.57;;;;;;;1.12;89.32;104028.94;5091661;28;20044;-88
2022/01/13 07:43:02;;;;;;;52.90;12.90;;;;;;;1.14;89.45;104027.34;5057183;28;20024;-87
2022/01/13 07:45:27;;;;;;;57.30;11.87;;;;;;;1.15;89.47;104031.69;5068720;28;20424;-88
2022/01/13 07:47:53;;;;;;;49.33;11.60;;;;;;;1.16;89.70;104036.03;5072553;28;20024;-88
2022/01/13 07:50:18;;;;;;;46.60;11.33;;;;;;;1.17;89.29;104038.69;5071014;28;20025;-87
2022/01/13 07:52:44;;;;;;;44.40;11.10;;;;;;;1.16;89.38;104038.59;5068896;28;20036;-87
2022/01/13 07:55:10;;;;;;;56.50;11.47;;;;;;;1.14;89.33;104041.06;5071957;28;20082;-87
2022/01/13 07:57:36;;;;;;;48.50;11.17;;;;;;;1.13;89.22;104041.84;5069959;28;20425;-88
2022/01/13 08:00:04;;;;;;;58.67;11.30;;;;;;;1.12;89.28;104039.19;5077539;28;20203;-88
2022/01/13 08:02:29;;;;;;;60.37;11.33;;;;;;;1.13;89.36;104040.97;5075371;28;20028;-88
2022/01/13 08:04:54;;;;;;;53.47;10.67;;;;;;;1.11;89.54;104039.97;5074136;28;20078;-88
2022/01/13 08:07:20;;;;;;;45.67;10.37;;;;;;;1.11;89.49;104043.41;5070814;28;20542;-88
2022/01/13 08:09:45;;;;;;;44.00;10.50;;;;;;;1.16;89.62;104036.03;5074132;28;20028;-87
2022/01/13 08:12:11;;;;;;;55.13;11.03;;;;;;;1.15;89.10;104047.09;5076417;28;20027;-87
2022/01/13 08:15:15;;;;;;;62.53;10.90;;;;;;;1.16;89.51;104041.16;5069785;28;20107;-88
2022/01/13 08:20:33;;;;;;;57.33;11.23;;;;;;;1.16;89.08;104056.56;5079122;28;20056;-87
2022/01/13 08:23:00;;;;;;;60.60;10.93;;;;;;;1.17;89.55;104055.78;5074487;28;20036;-88
2022/01/13 08:25:27;;;;;;;53.10;10.07;;;;;;;1.17;89.37;104053.22;5079599;28;20047;-87
2022/01/13 08:27:56;;;;;;;40.77;10.47;;;;;;;1.16;89.25;104056.56;5078490;28;20093;-88
2022/01/13 08:30:22;;;;;;;47.13;10.10;;;;;;;1.17;89.35;104063.47;5068577;28;20710;-88
2022/01/13 08:32:47;;;;;;;35.23;9.97;;;;;;;1.17;89.49;104072.03;5085917;28;20052;-88
2022/01/13 08:35:13;;;;;;;55.30;9.97;;;;;;;1.17;89.41;104069.47;5060241;28;20052;-87
2022/01/13 08:37:39;;;;;;;36.10;10.23;;;;;;;1.18;89.90;104076.38;5076929;28;20031;-87
2022/01/13 08:40:08;;;;;;;46.00;11.17;;;;;;;1.21;89.76;104075.69;5081902;28;20467;-87
2022/01/13 08:42:33;;;;;;;39.97;9.77;;;;;;;1.23;89.76;104078.38;5078260;28;20040;-87
2022/01/13 08:44:59;;;;;;;45.27;9.87;;;;;;;1.24;89.75;104081.00;5074233;28;20028;-86
2022/01/13 08:47:25;;;;;;;36.87;10.23;;;;;;;1.23;89.55;104078.38;5055664;28;20032;-88
2022/01/13 08:49:50;;;;;;;37.87;10.47;;;;;;;1.24;89.70;104081.00;5075202;28;20212;-88
2022/01/13 08:52:16;;;;;;;45.43;10.40;;;;;;;1.27;90.04;104082.91;5074038;28;20112;-88
2022/01/13 08:54:45;;;;;;;33.83;9.30;;;;;;;1.29;89.60;104079.66;5073068;28;20020;-87
2022/01/13 08:57:11;;;;;;;46.87;9.57;;;;;;;1.31;89.70;104074.59;5072171;28;20024;-87
2022/01/13 08:59:36;;;;;;;40.20;8.97;;;;;;;1.30;89.86;104081.44;5069125;28;20036;-95
2022/01/13 09:02:02;;;;;;;48.23;9.83;;;;;;;1.29;89.73;104082.22;5048345;28;20039;-88
2022/01/13 09:04:29;;;;;;;30.50;9.37;;;;;;;1.31;89.66;104085.78;5072300;28;20120;-91
2022/01/13 09:06:55;;;;;;;33.83;10.30;;;;;;;1.30;90.06;104086.56;5065333;28;20037;-86
2022/01/13 09:09:20;;;;;;;40.27;9.73;;;;;;;1.32;89.75;104082.41;5067296;28;20024;-90
2022/01/13 09:11:46;;;;;;;35.37;10.00;;;;;;;1.34;89.77;104088.53;5047827;28;20028;-88
2022/01/13 09:14:13;;;;;;;38.13;10.43;;;;;;;1.35;89.95;104094.53;5066719;28;20792;-87
2022/01/13 09:16:42;;;;;;;38.10;9.63;;;;;;;1.38;89.74;104084.50;5048119;28;20107;-88
2022/01/13 09:19:13;;;;;;;39.30;10.00;;;;;;;1.38;89.70;104084.50;5049383;28;20431;-88
2022/01/13 09:21:40;;;;;;;37.97;9.97;;;;;;;1.38;89.52;104083.59;5045106;28;20021;-88
2022/01/13 09:24:09;;;;;;;43.00;9.33;;;;;;;1.38;89.72;104088.72;5066021;28;20032;-89
2022/01/13 09:26:34;;;;;;;48.97;10.33;;;;;;;1.38;89.90;104091.28;5049410;28;20048;-89
2022/01/13 09:29:00;;;;;;;36.50;9.17;;;;;;;1.40;90.12;104092.28;5067917;28;20082;-89
2022/01/13 09:31:26;;;;;;;44.97;10.00;;;;;;;1.40;89.35;104087.13;5065284;28;20056;-86
2022/01/13 09:33:53;;;;;;;32.77;9.23;;;;;;;1.39;89.67;104085.34;5065005;28;20066;-91
2022/01/13 09:36:19;;;;;;;33.67;10.10;;;;;;;1.40;89.65;104082.91;5046365;28;20044;-88
2022/01/13 09:38:44;;;;;;;51.50;9.97;;;;;;;1.41;90.03;104087.25;5063976;28;20068;-89
2022/01/13 09:41:09;;;;;;;37.90;9.57;;;;;;;1.44;89.99;104087.47;5062467;28;20039;-88
2022/01/13 09:43:35;;;;;;;40.23;9.60;;;;;;;1.46;89.84;104090.13;5065266;28;20031;-87
2022/01/13 09:46:00;;;;;;;42.47;9.83;;;;;;;1.45;89.94;104085.78;5063968;28;20028;-87
2022/01/13 09:48:27;;;;;;;46.77;9.53;;;;;;;1.46;90.06;104084.97;5062743;28;20112;-88
2022/01/13 09:50:53;;;;;;;35.00;9.80;;;;;;;1.45;90.10;104096.91;5040519;28;20029;-87
2022/01/13 09:53:18;;;;;;;40.23;9.80;;;;;;;1.47;90.39;104091.91;5063527;28;20100;-88
2022/01/13 09:55:45;;;;;;;37.87;9.70;;;;;;;1.52;90.37;104103.34;5065708;28;20570;-87
2022/01/13 09:58:11;;;;;;;43.53;9.70;;;;;;;1.53;90.16;104094.88;5064731;28;20590;-87
2022/01/13 10:00:41;;;;;;;46.40;10.00;;;;;;;1.53;90.39;104100.00;5064895;28;20035;-90
2022/01/13 10:03:12;;;;;;;45.00;9.13;;;;;;;1.54;90.12;104094.03;5064715;28;20514;-91
2022/01/13 10:05:47;;;;;;;37.03;9.50;;;;;;;1.56;90.05;104094.16;5065134;28;20039;-88
2022/01/13 10:08:12;;;;;;;51.87;8.67;;;;;;;1.57;89.78;104093.38;5059228;28;20039;-88
2022/01/13 10:10:38;;;;;;;45.37;9.53;;;;;;;1.57;90.05;104101.94;5046665;28;20029;-88
2022/01/13 10:13:09;;;;;;;37.53;10.07;;;;;;;1.58;90.13;104093.47;5046870;28;20036;-87
2022/01/13 10:18:37;;;;;;;41.70;8.87;;;;;;;1.66;90.00;104097.44;5065163;28;20089;-88
2022/01/13 10:21:11;;;;;;;34.17;8.93;;;;;;;1.70;89.80;104097.63;5065017;28;20103;-89
2022/01/13 10:23:37;;;;;;;31.17;10.33;;;;;;;1.71;90.04;104089.13;5058594;28;20047;-90
2022/01/13 10:26:16;;;;;;;39.57;9.23;;;;;;;1.74;90.48;104097.00;5048171;28;20048;-89
2022/01/13 10:28:51;;;;;;;41.00;9.70;;;;;;;1.77;90.05;104084.38;5046270;28;20051;-88
2022/01/13 10:31:16;;;;;;;33.03;8.57;;;;;;;1.78;89.82;104088.72;5065489;28;20028;-86
2022/01/13 10:33:43;;;;;;;39.03;9.60;;;;;;;1.79;89.97;104081.09;5064337;28;20052;-86
2022/01/13 10:36:11;;;;;;;31.10;9.30;;;;;;;1.81;89.99;104086.34;5046000;28;21645;-89
2022/01/13 10:38:55;;;;;;;29.57;9.17;;;;;;;1.85;89.90;104090.91;5045700;28;20507;-87
2022/01/13 10:41:48;;;;;;;37.13;9.00;;;;;;;1.88;89.73;104087.63;5047421;28;20036;-87
2022/01/13 10:44:19;;;;;;;35.80;9.60;;;;;;;1.87;89.69;104084.19;5064237;28;20069;-89
2022/01/13 10:46:59;;;;;;;28.25;9.43;;;;;;;1.90;89.38;104083.47;5047729;28;20035;-90
2022/01/13 10:49:35;;;;;;;31.33;9.87;;;;;;;1.89;89.67;104074.88;5063281;28;20039;-87
2022/01/13 10:52:15;;;;;;;35.53;9.20;;;;;;;1.93;89.51;104076.84;5063968;28;20032;-88
2022/01/13 10:54:41;;;;;;;29.93;9.27;;;;;;;1.94;89.39;104072.63;5046028;28;20069;-87
2022/01/13 10:57:20;;;;;;;36.97;9.73;;;;;;;1.96;89.63;104076.16;5064262;28;20738;-89
2022/01/13 10:59:45;;;;;;;29.33;9.03;;;;;;;1.96;89.39;104084.75;5046115;28;20437;-90
2022/01/13 11:02:11;;;;;;;31.00;9.10;;;;;;;1.97;89.46;104077.91;5046947;28;20037;-89
2022/01/13 11:04:37;;;;;;;26.23;9.83;;;;;;;1.96;89.29;104076.16;5064485;28;20475;-87
2022/01/13 11:07:21;;;;;;;34.17;10.30;;;;;;;1.99;89.30;104067.75;5045340;28;20070;-87
2022/01/13 11:10:01;;;;;;;36.70;9.50;;;;;;;1.96;89.35;104069.34;5062558;28;20536;-88
2022/01/13 11:12:34;;;;;;;34.23;10.33;;;;;;;1.96;89.61;104060.75;5065823;28;20403;-88
2022/01/13 11:15:08;;;;;;;33.57;9.30;;;;;;;1.99;89.60;104054.91;5063746;28;20648;-89
2022/01/13 11:17:38;;;;;;;37.37;9.87;;;;;;;2.03;89.45;104046.63;5064690;28;21520;-87
2022/01/13 11:20:05;;;;;;;32.00;10.07;;;;;;;2.05;89.43;104048.47;5045667;28;20058;-86
2022/01/13 11:22:35;;;;;;;26.93;9.77;;;;;;;2.06;89.47;104044.22;5062956;28;20423;-87
2022/01/13 11:25:02;;;;;;;34.13;10.43;;;;;;;2.06;89.54;104041.66;5065523;28;20028;-86
2022/01/13 11:27:28;;;;;;;36.40;9.50;;;;;;;2.08;89.30;104034.94;5061893;28;20048;-86
2022/01/13 11:29:55;;;;;;;31.87;10.47;;;;;;;2.09;89.37;104041.84;5064469;28;20094;-87
2022/01/13 11:32:21;;;;;;;32.83;10.30;;;;;;;2.09;89.44;104035.03;5047664;28;20067;-87
2022/01/13 11:34:47;;;;;;;31.00;10.23;;;;;;;2.10;89.50;104038.47;5064536;28;20415;-88
2022/01/13 11:37:13;;;;;;;25.40;9.70;;;;;;;2.11;89.26;104040.25;5062651;28;20032;-88
2022/01/13 11:39:42;;;;;;;34.77;9.70;;;;;;;2.10;89.21;104038.47;5047954;28;20090;-87
2022/01/13 11:42:10;;;;;;;29.77;10.13;;;;;;;2.10;89.21;104048.75;5063630;28;20119;-87
2022/01/13 11:44:36;;;;;;;34.23;9.93;;;;;;;2.12;89.22;104047.19;5064749;28;20035;-87